Hlavní strana
METAR-TAF:

METAR-TAF

Letiště :

Vídeňské Nové Město, Rakousko

zeměpisná šířka: 47-50-36N, zeměpisná délka: 016-15-29E, výška: 272 m

Aktuální stav počasí

Zpráva byla vytvořena před 6 hodinami a 8 minutami, v 16:00 UTC
Severozápadní vítr 4 kt
Teplota
Tlak

METAR: LOAN 211600Z 31004KT 25KM FEW040CU SCT140AC BKN300CI

Čas: 23:08 (22:08 UTC)

Předpověď počasí

Zpráva byla vytvořena před 10 hodinami a 43 minutami, v 11:25 UTC
Předpověď platná od 21 v 12 UTC do 21 v 21 UTC
Západoseverozápadní vítr 10 kt
Viditelnost 10 km a více
Polojasno ve výšce 5000 ft
Oblačno až skoro zataženo ve výšce 30000 ft
Dočasný
od 21 v 19 UTC do 21 v 21 UTC
Západoseverozápadní vítr 15 kt
Viditelnost: 5000 m
Oblačno až skoro zataženo ve výšce 3000 ft
slabý déšť

TAF: LOAN 211125Z 2112/2121 30010KT 9999 SCT050 BKN300 TEMPO 2119/2121 30015KT 5000 -RA BKN030

Stav a předpovědi počasí z více než 4 000 letišť (zprávy METAR a TAF).

Červené a žluté tečky na mapě představují dostupné meteorologické stanice.

Když kurzor umístíte na tečku, zobrazí se název stanice.

Pak kliknutím zobrazíte stav a předpověď počasí.

Chcete-li změnit mapu, kliknutím na zelené tlačítko se znaménkem +mapu přiblížíte, kliknutím na zelené tlačítko se znaménkem – mapu oddálíte a kliknutím na zelené šipky přejdete na sousední mapy.


METAR-TAF: